sensor_id;sensor_type;location;lat;lon;timestamp;temperature;humidity
13835;DHT22;6988;52.614;13.500;2023-01-01T00:03:58;15.90;99.90
13835;DHT22;6988;52.614;13.500;2023-01-01T00:08:50;15.80;99.90
13835;DHT22;6988;52.614;13.500;2023-01-01T00:14:04;15.80;99.90
13835;DHT22;6988;52.614;13.500;2023-01-01T00:18:56;15.80;99.90
13835;DHT22;6988;52.614;13.500;2023-01-01T00:23:48;15.80;99.90
13835;DHT22;6988;52.614;13.500;2023-01-01T00:28:39;15.80;99.90
13835;DHT22;6988;52.614;13.500;2023-01-01T00:33:32;15.80;99.90
13835;DHT22;6988;52.614;13.500;2023-01-01T00:38:24;15.80;99.90
13835;DHT22;6988;52.614;13.500;2023-01-01T00:43:16;15.80;99.90
13835;DHT22;6988;52.614;13.500;2023-01-01T00:48:07;15.70;99.90
13835;DHT22;6988;52.614;13.500;2023-01-01T00:53:01;15.70;99.90
13835;DHT22;6988;52.614;13.500;2023-01-01T00:57:53;15.70;99.90
13835;DHT22;6988;52.614;13.500;2023-01-01T01:02:44;15.70;99.90
13835;DHT22;6988;52.614;13.500;2023-01-01T01:07:37;15.70;99.90
13835;DHT22;6988;52.614;13.500;2023-01-01T01:12:32;15.60;99.90
13835;DHT22;6988;52.614;13.500;2023-01-01T01:17:24;15.70;99.90
13835;DHT22;6988;52.614;13.500;2023-01-01T01:22:16;15.70;99.90
13835;DHT22;6988;52.614;13.500;2023-01-01T01:27:08;15.70;99.90
13835;DHT22;6988;52.614;13.500;2023-01-01T01:32:01;15.70;99.90
13835;DHT22;6988;52.614;13.500;2023-01-01T01:36:52;15.70;99.90
13835;DHT22;6988;52.614;13.500;2023-01-01T01:41:44;15.60;99.90
13835;DHT22;6988;52.614;13.500;2023-01-01T01:46:38;15.60;99.90
13835;DHT22;6988;52.614;13.500;2023-01-01T01:51:37;15.60;99.90
13835;DHT22;6988;52.614;13.500;2023-01-01T01:56:34;15.60;99.90
13835;DHT22;6988;52.614;13.500;2023-01-01T02:01:31;15.60;99.90
13835;DHT22;6988;52.614;13.500;2023-01-01T02:06:24;15.50;99.90
13835;DHT22;6988;52.614;13.500;2023-01-01T02:11:19;15.50;99.90
13835;DHT22;6988;52.614;13.500;2023-01-01T02:16:12;15.50;99.90
13835;DHT22;6988;52.614;13.500;2023-01-01T02:21:13;15.40;99.90
13835;DHT22;6988;52.614;13.500;2023-01-01T02:26:42;15.50;99.90
13835;DHT22;6988;52.614;13.500;2023-01-01T02:31:44;15.50;99.90
13835;DHT22;6988;52.614;13.500;2023-01-01T02:36:45;15.60;99.90
13835;DHT22;6988;52.614;13.500;2023-01-01T02:41:43;15.60;99.90
13835;DHT22;6988;52.614;13.500;2023-01-01T02:46:37;15.60;99.90
13835;DHT22;6988;52.614;13.500;2023-01-01T02:51:34;15.60;99.90
13835;DHT22;6988;52.614;13.500;2023-01-01T02:56:42;15.50;99.90
13835;DHT22;6988;52.614;13.500;2023-01-01T03:01:44;15.40;99.90
13835;DHT22;6988;52.614;13.500;2023-01-01T03:06:47;15.40;99.90
13835;DHT22;6988;52.614;13.500;2023-01-01T03:11:50;15.40;99.90
13835;DHT22;6988;52.614;13.500;2023-01-01T03:16:49;15.40;99.90
13835;DHT22;6988;52.614;13.500;2023-01-01T03:21:48;15.40;99.90
13835;DHT22;6988;52.614;13.500;2023-01-01T03:26:42;15.40;99.90
13835;DHT22;6988;52.614;13.500;2023-01-01T03:31:39;15.40;99.90
13835;DHT22;6988;52.614;13.500;2023-01-01T03:36:37;15.30;99.90
13835;DHT22;6988;52.614;13.500;2023-01-01T03:41:35;15.40;99.90
13835;DHT22;6988;52.614;13.500;2023-01-01T03:46:32;15.40;99.90
13835;DHT22;6988;52.614;13.500;2023-01-01T03:51:42;15.40;99.90
13835;DHT22;6988;52.614;13.500;2023-01-01T03:56:52;15.40;99.90
13835;DHT22;6988;52.614;13.500;2023-01-01T04:01:52;15.40;99.90
13835;DHT22;6988;52.614;13.500;2023-01-01T04:06:48;15.40;99.90
13835;DHT22;6988;52.614;13.500;2023-01-01T04:11:42;15.40;99.90
13835;DHT22;6988;52.614;13.500;2023-01-01T04:16:55;15.40;99.90
13835;DHT22;6988;52.614;13.500;2023-01-01T04:21:46;15.40;99.90
13835;DHT22;6988;52.614;13.500;2023-01-01T04:26:38;15.30;99.90
13835;DHT22;6988;52.614;13.500;2023-01-01T04:31:30;15.30;99.90
13835;DHT22;6988;52.614;13.500;2023-01-01T04:36:23;15.30;99.90
13835;DHT22;6988;52.614;13.500;2023-01-01T04:41:15;15.30;99.90
13835;DHT22;6988;52.614;13.500;2023-01-01T04:46:07;15.10;99.90
13835;DHT22;6988;52.614;13.500;2023-01-01T04:51:01;15.20;99.90
13835;DHT22;6988;52.614;13.500;2023-01-01T04:55:56;15.20;99.90
13835;DHT22;6988;52.614;13.500;2023-01-01T05:00:53;15.00;99.90
13835;DHT22;6988;52.614;13.500;2023-01-01T05:05:45;15.10;99.90
13835;DHT22;6988;52.614;13.500;2023-01-01T05:10:37;15.10;99.90
13835;DHT22;6988;52.614;13.500;2023-01-01T05:15:30;15.10;99.90
13835;DHT22;6988;52.614;13.500;2023-01-01T05:20:22;15.10;99.90
13835;DHT22;6988;52.614;13.500;2023-01-01T05:25:14;15.00;99.90
13835;DHT22;6988;52.614;13.500;2023-01-01T05:30:07;14.90;99.90
13835;DHT22;6988;52.614;13.500;2023-01-01T05:35:00;15.00;99.90
13835;DHT22;6988;52.614;13.500;2023-01-01T05:39:52;14.90;99.90
13835;DHT22;6988;52.614;13.500;2023-01-01T05:44:44;15.00;99.90
13835;DHT22;6988;52.614;13.500;2023-01-01T05:49:36;15.00;99.90
13835;DHT22;6988;52.614;13.500;2023-01-01T05:54:30;14.90;99.90
13835;DHT22;6988;52.614;13.500;2023-01-01T05:59:21;14.90;99.90
13835;DHT22;6988;52.614;13.500;2023-01-01T06:04:13;15.00;99.90
13835;DHT22;6988;52.614;13.500;2023-01-01T06:09:05;15.00;99.90
13835;DHT22;6988;52.614;13.500;2023-01-01T06:13:59;15.00;99.90
13835;DHT22;6988;52.614;13.500;2023-01-01T06:18:51;14.90;99.90
13835;DHT22;6988;52.614;13.500;2023-01-01T06:23:43;14.90;99.90
13835;DHT22;6988;52.614;13.500;2023-01-01T06:28:36;14.90;99.90
13835;DHT22;6988;52.614;13.500;2023-01-01T06:33:29;14.90;99.90
13835;DHT22;6988;52.614;13.500;2023-01-01T06:38:21;14.90;99.90
13835;DHT22;6988;52.614;13.500;2023-01-01T06:43:13;14.90;99.90
13835;DHT22;6988;52.614;13.500;2023-01-01T06:48:05;14.90;99.90
13835;DHT22;6988;52.614;13.500;2023-01-01T06:52:58;14.90;99.90
13835;DHT22;6988;52.614;13.500;2023-01-01T06:57:50;14.70;99.90
13835;DHT22;6988;52.614;13.500;2023-01-01T07:02:42;14.80;99.90
13835;DHT22;6988;52.614;13.500;2023-01-01T07:07:34;14.90;99.90
13835;DHT22;6988;52.614;13.500;2023-01-01T07:12:27;14.80;99.90
13835;DHT22;6988;52.614;13.500;2023-01-01T07:17:19;14.90;99.90
13835;DHT22;6988;52.614;13.500;2023-01-01T07:22:11;14.80;99.90
13835;DHT22;6988;52.614;13.500;2023-01-01T07:27:03;14.80;99.90
13835;DHT22;6988;52.614;13.500;2023-01-01T07:31:56;14.90;99.90
13835;DHT22;6988;52.614;13.500;2023-01-01T07:36:47;14.80;99.90
13835;DHT22;6988;52.614;13.500;2023-01-01T07:41:40;14.80;99.90
13835;DHT22;6988;52.614;13.500;2023-01-01T07:46:33;14.90;99.90
13835;DHT22;6988;52.614;13.500;2023-01-01T07:51:27;14.90;99.90
13835;DHT22;6988;52.614;13.500;2023-01-01T07:56:19;15.00;99.90
13835;DHT22;6988;52.614;13.500;2023-01-01T08:01:11;14.90;99.90
13835;DHT22;6988;52.614;13.500;2023-01-01T08:06:06;14.90;99.90
13835;DHT22;6988;52.614;13.500;2023-01-01T08:11:00;14.90;99.90
13835;DHT22;6988;52.614;13.500;2023-01-01T08:15:54;14.90;99.90
13835;DHT22;6988;52.614;13.500;2023-01-01T08:20:47;14.90;99.90
13835;DHT22;6988;52.614;13.500;2023-01-01T08:25:39;14.90;99.90
13835;DHT22;6988;52.614;13.500;2023-01-01T08:30:32;14.90;99.90
13835;DHT22;6988;52.614;13.500;2023-01-01T08:35:24;14.90;99.90
13835;DHT22;6988;52.614;13.500;2023-01-01T08:40:15;14.90;99.90
13835;DHT22;6988;52.614;13.500;2023-01-01T08:45:08;15.00;99.90
13835;DHT22;6988;52.614;13.500;2023-01-01T08:50:02;15.10;99.90
13835;DHT22;6988;52.614;13.500;2023-01-01T08:54:53;15.10;99.90
13835;DHT22;6988;52.614;13.500;2023-01-01T08:59:45;15.10;99.90
13835;DHT22;6988;52.614;13.500;2023-01-01T09:04:37;15.10;99.90
13835;DHT22;6988;52.614;13.500;2023-01-01T09:09:30;15.10;99.90
13835;DHT22;6988;52.614;13.500;2023-01-01T09:14:21;15.20;99.90
13835;DHT22;6988;52.614;13.500;2023-01-01T09:19:14;15.10;99.90
13835;DHT22;6988;52.614;13.500;2023-01-01T09:24:06;15.20;99.90
13835;DHT22;6988;52.614;13.500;2023-01-01T09:28:59;15.20;99.90
13835;DHT22;6988;52.614;13.500;2023-01-01T09:33:51;15.20;99.90
13835;DHT22;6988;52.614;13.500;2023-01-01T09:38:47;15.20;99.90
13835;DHT22;6988;52.614;13.500;2023-01-01T09:43:44;15.20;99.90
13835;DHT22;6988;52.614;13.500;2023-01-01T09:48:52;15.30;99.90
13835;DHT22;6988;52.614;13.500;2023-01-01T09:53:50;15.40;99.90
13835;DHT22;6988;52.614;13.500;2023-01-01T09:58:46;15.40;99.90
13835;DHT22;6988;52.614;13.500;2023-01-01T10:03:41;15.40;99.90
13835;DHT22;6988;52.614;13.500;2023-01-01T10:08:56;15.40;99.90
13835;DHT22;6988;52.614;13.500;2023-01-01T10:13:57;15.30;99.90
13835;DHT22;6988;52.614;13.500;2023-01-01T10:18:54;15.50;99.90
13835;DHT22;6988;52.614;13.500;2023-01-01T10:23:53;15.60;99.90
13835;DHT22;6988;52.614;13.500;2023-01-01T10:28:55;15.60;99.90
13835;DHT22;6988;52.614;13.500;2023-01-01T10:33:51;15.60;99.90
13835;DHT22;6988;52.614;13.500;2023-01-01T10:38:43;15.60;99.90
13835;DHT22;6988;52.614;13.500;2023-01-01T10:43:37;15.70;99.90
13835;DHT22;6988;52.614;13.500;2023-01-01T10:48:30;15.70;99.90
13835;DHT22;6988;52.614;13.500;2023-01-01T10:53:25;15.80;99.90
13835;DHT22;6988;52.614;13.500;2023-01-01T10:58:26;15.80;99.90
13835;DHT22;6988;52.614;13.500;2023-01-01T11:03:26;15.70;99.90
13835;DHT22;6988;52.614;13.500;2023-01-01T11:08:18;15.80;99.90
13835;DHT22;6988;52.614;13.500;2023-01-01T11:13:17;15.80;99.90
13835;DHT22;6988;52.614;13.500;2023-01-01T11:18:13;15.80;99.90
13835;DHT22;6988;52.614;13.500;2023-01-01T11:23:19;15.80;99.90
13835;DHT22;6988;52.614;13.500;2023-01-01T11:28:19;15.80;99.90
13835;DHT22;6988;52.614;13.500;2023-01-01T11:33:14;15.80;99.90
13835;DHT22;6988;52.614;13.500;2023-01-01T11:38:17;15.70;99.90
13835;DHT22;6988;52.614;13.500;2023-01-01T11:43:17;15.70;99.90
13835;DHT22;6988;52.614;13.500;2023-01-01T11:48:16;15.70;99.90
13835;DHT22;6988;52.614;13.500;2023-01-01T11:53:24;15.70;99.90
13835;DHT22;6988;52.614;13.500;2023-01-01T11:58:23;15.80;99.90
13835;DHT22;6988;52.614;13.500;2023-01-01T12:03:24;15.80;99.90
13835;DHT22;6988;52.614;13.500;2023-01-01T12:08:30;15.80;99.90
13835;DHT22;6988;52.614;13.500;2023-01-01T12:13:27;15.70;99.90
13835;DHT22;6988;52.614;13.500;2023-01-01T12:18:26;15.70;99.90
13835;DHT22;6988;52.614;13.500;2023-01-01T12:23:25;15.60;99.90
13835;DHT22;6988;52.614;13.500;2023-01-01T12:28:26;15.60;99.90
13835;DHT22;6988;52.614;13.500;2023-01-01T12:33:39;15.60;99.90
13835;DHT22;6988;52.614;13.500;2023-01-01T12:45:33;15.70;99.90
13835;DHT22;6988;52.614;13.500;2023-01-01T12:50:43;15.80;99.90
13835;DHT22;6988;52.614;13.500;2023-01-01T12:56:06;15.70;99.90
13835;DHT22;6988;52.614;13.500;2023-01-01T13:01:09;15.60;99.90
13835;DHT22;6988;52.614;13.500;2023-01-01T13:06:04;15.60;99.90
13835;DHT22;6988;52.614;13.500;2023-01-01T13:11:00;15.60;99.90
13835;DHT22;6988;52.614;13.500;2023-01-01T13:15:54;15.60;99.90
13835;DHT22;6988;52.614;13.500;2023-01-01T13:20:57;15.50;99.90
13835;DHT22;6988;52.614;13.500;2023-01-01T13:31:59;15.50;99.90
13835;DHT22;6988;52.614;13.500;2023-01-01T13:37:25;15.40;99.90
13835;DHT22;6988;52.614;13.500;2023-01-01T13:42:37;15.50;99.90
13835;DHT22;6988;52.614;13.500;2023-01-01T13:47:39;15.50;99.90
13835;DHT22;6988;52.614;13.500;2023-01-01T13:52:56;15.50;99.90
13835;DHT22;6988;52.614;13.500;2023-01-01T13:58:20;15.50;99.90
13835;DHT22;6988;52.614;13.500;2023-01-01T14:03:23;15.40;99.90
13835;DHT22;6988;52.614;13.500;2023-01-01T14:08:27;15.40;99.90
13835;DHT22;6988;52.614;13.500;2023-01-01T14:13:21;15.50;99.90
13835;DHT22;6988;52.614;13.500;2023-01-01T14:18:18;15.40;99.90
13835;DHT22;6988;52.614;13.500;2023-01-01T14:23:15;15.30;99.90
13835;DHT22;6988;52.614;13.500;2023-01-01T14:28:15;15.30;99.90
13835;DHT22;6988;52.614;13.500;2023-01-01T14:33:20;15.20;99.90
13835;DHT22;6988;52.614;13.500;2023-01-01T14:38:22;15.20;99.90
13835;DHT22;6988;52.614;13.500;2023-01-01T14:43:16;15.10;99.90
13835;DHT22;6988;52.614;13.500;2023-01-01T14:48:16;15.00;99.90
13835;DHT22;6988;52.614;13.500;2023-01-01T14:53:14;14.90;99.90
13835;DHT22;6988;52.614;13.500;2023-01-01T14:58:12;14.80;99.90
13835;DHT22;6988;52.614;13.500;2023-01-01T15:03:13;14.80;99.90
13835;DHT22;6988;52.614;13.500;2023-01-01T15:08:17;14.80;99.90
13835;DHT22;6988;52.614;13.500;2023-01-01T15:13:16;14.50;99.90
13835;DHT22;6988;52.614;13.500;2023-01-01T15:18:34;14.40;99.90
13835;DHT22;6988;52.614;13.500;2023-01-01T15:23:32;14.40;99.90
13835;DHT22;6988;52.614;13.500;2023-01-01T15:28:26;14.30;99.90
13835;DHT22;6988;52.614;13.500;2023-01-01T15:33:18;14.30;99.90
13835;DHT22;6988;52.614;13.500;2023-01-01T15:38:14;14.30;99.90
13835;DHT22;6988;52.614;13.500;2023-01-01T15:43:17;14.20;99.90
13835;DHT22;6988;52.614;13.500;2023-01-01T15:48:19;14.10;99.90
13835;DHT22;6988;52.614;13.500;2023-01-01T15:53:17;13.90;99.90
13835;DHT22;6988;52.614;13.500;2023-01-01T15:58:17;13.80;99.90
13835;DHT22;6988;52.614;13.500;2023-01-01T16:03:17;13.60;99.90
13835;DHT22;6988;52.614;13.500;2023-01-01T16:08:14;13.40;99.90
13835;DHT22;6988;52.614;13.500;2023-01-01T16:13:06;13.20;99.90
13835;DHT22;6988;52.614;13.500;2023-01-01T16:17:59;13.10;99.90
13835;DHT22;6988;52.614;13.500;2023-01-01T16:22:51;13.00;99.90
13835;DHT22;6988;52.614;13.500;2023-01-01T16:27:43;13.00;99.90
13835;DHT22;6988;52.614;13.500;2023-01-01T16:32:35;12.70;99.90
13835;DHT22;6988;52.614;13.500;2023-01-01T16:37:28;12.60;99.90
13835;DHT22;6988;52.614;13.500;2023-01-01T16:42:19;12.50;99.90
13835;DHT22;6988;52.614;13.500;2023-01-01T16:47:11;12.60;99.90
13835;DHT22;6988;52.614;13.500;2023-01-01T16:52:03;12.30;99.90
13835;DHT22;6988;52.614;13.500;2023-01-01T16:56:56;12.20;99.90
13835;DHT22;6988;52.614;13.500;2023-01-01T17:01:47;12.10;99.90
13835;DHT22;6988;52.614;13.500;2023-01-01T17:06:39;12.00;99.90
13835;DHT22;6988;52.614;13.500;2023-01-01T17:11:31;11.90;99.90
13835;DHT22;6988;52.614;13.500;2023-01-01T17:16:25;11.80;99.90
13835;DHT22;6988;52.614;13.500;2023-01-01T17:21:18;11.70;99.90
13835;DHT22;6988;52.614;13.500;2023-01-01T17:26:12;11.60;99.90
13835;DHT22;6988;52.614;13.500;2023-01-01T17:31:07;11.50;99.90
13835;DHT22;6988;52.614;13.500;2023-01-01T17:36:03;11.20;99.90
13835;DHT22;6988;52.614;13.500;2023-01-01T17:41:00;11.30;99.90
13835;DHT22;6988;52.614;13.500;2023-01-01T17:45:53;11.20;99.90
13835;DHT22;6988;52.614;13.500;2023-01-01T17:50:44;11.30;99.90
13835;DHT22;6988;52.614;13.500;2023-01-01T17:55:37;11.00;99.90
13835;DHT22;6988;52.614;13.500;2023-01-01T18:00:29;11.00;99.90
13835;DHT22;6988;52.614;13.500;2023-01-01T18:05:20;11.00;99.90
13835;DHT22;6988;52.614;13.500;2023-01-01T18:10:12;11.00;99.90
13835;DHT22;6988;52.614;13.500;2023-01-01T18:15:07;11.00;99.90
13835;DHT22;6988;52.614;13.500;2023-01-01T18:19:59;11.00;99.90
13835;DHT22;6988;52.614;13.500;2023-01-01T18:24:51;10.90;99.90
13835;DHT22;6988;52.614;13.500;2023-01-01T18:29:43;10.80;99.90
13835;DHT22;6988;52.614;13.500;2023-01-01T18:34:36;10.60;99.90
13835;DHT22;6988;52.614;13.500;2023-01-01T18:39:28;10.60;99.90
13835;DHT22;6988;52.614;13.500;2023-01-01T18:44:24;10.50;99.90
13835;DHT22;6988;52.614;13.500;2023-01-01T18:49:17;10.50;99.90
13835;DHT22;6988;52.614;13.500;2023-01-01T18:54:13;10.50;99.90
13835;DHT22;6988;52.614;13.500;2023-01-01T18:59:15;10.40;99.90
13835;DHT22;6988;52.614;13.500;2023-01-01T19:04:11;10.40;99.90
13835;DHT22;6988;52.614;13.500;2023-01-01T19:09:17;10.30;99.90
13835;DHT22;6988;52.614;13.500;2023-01-01T19:14:13;10.30;99.90
13835;DHT22;6988;52.614;13.500;2023-01-01T19:19:14;10.30;99.90
13835;DHT22;6988;52.614;13.500;2023-01-01T19:24:13;10.20;99.90
13835;DHT22;6988;52.614;13.500;2023-01-01T19:29:13;10.20;99.90
13835;DHT22;6988;52.614;13.500;2023-01-01T19:34:07;10.10;99.90
13835;DHT22;6988;52.614;13.500;2023-01-01T19:38:59;10.10;99.90
13835;DHT22;6988;52.614;13.500;2023-01-01T19:43:52;10.10;99.90
13835;DHT22;6988;52.614;13.500;2023-01-01T19:48:43;10.10;99.90
13835;DHT22;6988;52.614;13.500;2023-01-01T19:53:35;10.10;99.90
13835;DHT22;6988;52.614;13.500;2023-01-01T19:58:27;10.10;99.90
13835;DHT22;6988;52.614;13.500;2023-01-01T20:03:20;10.00;99.90
13835;DHT22;6988;52.614;13.500;2023-01-01T20:08:16;10.10;99.90
13835;DHT22;6988;52.614;13.500;2023-01-01T20:13:07;10.30;99.90
13835;DHT22;6988;52.614;13.500;2023-01-01T20:17:59;10.50;99.90
13835;DHT22;6988;52.614;13.500;2023-01-01T20:22:52;10.60;99.90
13835;DHT22;6988;52.614;13.500;2023-01-01T20:27:44;10.70;99.90
13835;DHT22;6988;52.614;13.500;2023-01-01T20:32:53;10.70;99.90
13835;DHT22;6988;52.614;13.500;2023-01-01T20:37:44;10.70;99.90
13835;DHT22;6988;52.614;13.500;2023-01-01T20:42:37;10.80;99.90
13835;DHT22;6988;52.614;13.500;2023-01-01T20:47:29;10.70;99.90
13835;DHT22;6988;52.614;13.500;2023-01-01T20:52:21;10.80;99.90
13835;DHT22;6988;52.614;13.500;2023-01-01T20:57:12;10.80;99.90
13835;DHT22;6988;52.614;13.500;2023-01-01T21:02:07;10.80;99.90
13835;DHT22;6988;52.614;13.500;2023-01-01T21:07:00;10.80;99.90
13835;DHT22;6988;52.614;13.500;2023-01-01T21:11:51;10.80;99.90
13835;DHT22;6988;52.614;13.500;2023-01-01T21:16:43;10.80;99.90
13835;DHT22;6988;52.614;13.500;2023-01-01T21:21:41;10.90;99.90
13835;DHT22;6988;52.614;13.500;2023-01-01T21:26:35;10.80;99.90
13835;DHT22;6988;52.614;13.500;2023-01-01T21:31:28;10.90;99.90
13835;DHT22;6988;52.614;13.500;2023-01-01T21:36:28;10.90;99.90
13835;DHT22;6988;52.614;13.500;2023-01-01T21:41:22;10.80;99.90
13835;DHT22;6988;52.614;13.500;2023-01-01T21:46:27;10.80;99.90
13835;DHT22;6988;52.614;13.500;2023-01-01T21:51:24;10.80;99.90
13835;DHT22;6988;52.614;13.500;2023-01-01T21:56:27;10.80;99.90
13835;DHT22;6988;52.614;13.500;2023-01-01T22:01:23;10.80;99.90
13835;DHT22;6988;52.614;13.500;2023-01-01T22:06:16;10.80;99.90
13835;DHT22;6988;52.614;13.500;2023-01-01T22:11:13;10.80;99.90
13835;DHT22;6988;52.614;13.500;2023-01-01T22:16:14;10.80;99.90
13835;DHT22;6988;52.614;13.500;2023-01-01T22:21:13;10.80;99.90
13835;DHT22;6988;52.614;13.500;2023-01-01T22:26:16;10.90;99.90
13835;DHT22;6988;52.614;13.500;2023-01-01T22:31:15;10.90;99.90
13835;DHT22;6988;52.614;13.500;2023-01-01T22:36:11;10.90;99.90
13835;DHT22;6988;52.614;13.500;2023-01-01T22:41:06;10.90;99.90
13835;DHT22;6988;52.614;13.500;2023-01-01T23:04:14;10.90;99.90
13835;DHT22;6988;52.614;13.500;2023-01-01T23:09:06;10.90;99.90
13835;DHT22;6988;52.614;13.500;2023-01-01T23:14:00;10.90;99.90
13835;DHT22;6988;52.614;13.500;2023-01-01T23:19:10;11.00;99.90
13835;DHT22;6988;52.614;13.500;2023-01-01T23:24:05;11.00;99.90
13835;DHT22;6988;52.614;13.500;2023-01-01T23:29:01;11.10;99.90
13835;DHT22;6988;52.614;13.500;2023-01-01T23:33:54;11.10;99.90
13835;DHT22;6988;52.614;13.500;2023-01-01T23:38:47;11.20;99.90
13835;DHT22;6988;52.614;13.500;2023-01-01T23:43:40;11.20;99.90
13835;DHT22;6988;52.614;13.500;2023-01-01T23:48:31;11.20;99.90
13835;DHT22;6988;52.614;13.500;2023-01-01T23:53:23;11.20;99.90
13835;DHT22;6988;52.614;13.500;2023-01-01T23:58:15;11.10;99.90
